createdAt,value
2023-04-02T00:06:46.634Z,4.90
2023-04-02T00:11:55.725Z,4.80
2023-04-02T00:14:28.756Z,4.80
2023-04-02T00:16:59.442Z,4.80
2023-04-02T00:19:33.248Z,4.80
2023-04-02T00:24:35.132Z,4.70
2023-04-02T00:27:04.470Z,4.80
2023-04-02T00:29:33.889Z,4.70
2023-04-02T00:32:03.379Z,4.80
2023-04-02T00:34:37.580Z,4.70
2023-04-02T00:37:05.888Z,4.70
2023-04-02T00:39:40.686Z,4.60
2023-04-02T00:44:44.388Z,4.60
2023-04-02T00:47:17.113Z,4.50
2023-04-02T00:49:48.674Z,4.50
2023-04-02T00:52:19.330Z,4.50
2023-04-02T00:54:52.017Z,4.50
2023-04-02T00:57:25.476Z,4.50
2023-04-02T01:02:30.043Z,4.50
2023-04-02T01:07:44.398Z,4.40
2023-04-02T01:12:59.247Z,4.40
2023-04-02T01:15:31.366Z,4.40
2023-04-02T01:21:04.565Z,4.40
2023-04-02T01:23:39.056Z,4.40
2023-04-02T01:26:15.195Z,4.40
2023-04-02T01:28:57.983Z,4.40
2023-04-02T01:31:28.449Z,4.30
2023-04-02T01:36:31.004Z,4.30
2023-04-02T01:39:07.725Z,4.30
2023-04-02T01:41:41.515Z,4.20
2023-04-02T01:51:48.312Z,4.10
2023-04-02T01:54:18.490Z,4.10
2023-04-02T01:56:47.188Z,4.00
2023-04-02T01:59:22.489Z,4.00
2023-04-02T02:02:03.366Z,4.10
2023-04-02T02:09:37.622Z,3.90
2023-04-02T02:12:06.711Z,3.90
2023-04-02T02:14:36.107Z,3.90
2023-04-02T02:17:13.440Z,3.90
2023-04-02T02:19:45.549Z,3.90
2023-04-02T02:22:19.896Z,3.90
2023-04-02T02:24:49.748Z,3.80
2023-04-02T02:27:58.681Z,3.70
2023-04-02T02:30:31.465Z,3.80
2023-04-02T02:33:08.695Z,3.80
2023-04-02T02:35:43.203Z,3.70
2023-04-02T02:41:09.831Z,3.70
2023-04-02T02:43:40.799Z,3.70
2023-04-02T02:46:16.211Z,3.60
2023-04-02T02:48:46.648Z,3.70
2023-04-02T02:51:21.952Z,3.60
2023-04-02T02:53:53.461Z,3.70
2023-04-02T02:56:24.812Z,3.50
2023-04-02T02:58:54.811Z,3.70
2023-04-02T03:01:33.416Z,3.60
2023-04-02T03:04:05.984Z,3.60
2023-04-02T03:06:37.891Z,3.70
2023-04-02T03:09:13.601Z,3.60
2023-04-02T03:11:48.384Z,3.60
2023-04-02T03:22:08.863Z,3.60
2023-04-02T03:24:45.942Z,3.50
2023-04-02T03:27:19.322Z,3.40
2023-04-02T03:32:29.252Z,3.50
2023-04-02T03:35:01.832Z,3.50
2023-04-02T03:37:35.217Z,3.50
2023-04-02T03:40:11.652Z,3.40
2023-04-02T03:42:45.656Z,3.50
2023-04-02T03:45:20.668Z,3.50
2023-04-02T03:47:53.847Z,3.40
2023-04-02T03:50:26.096Z,3.40
2023-04-02T03:52:58.723Z,3.30
2023-04-02T03:55:31.343Z,3.40
2023-04-02T03:58:04.137Z,3.20
2023-04-02T04:00:39.047Z,3.30
2023-04-02T04:05:48.483Z,3.30
2023-04-02T04:08:20.082Z,3.20
2023-04-02T04:10:54.380Z,3.20
2023-04-02T04:13:26.706Z,3.10
2023-04-02T04:18:37.884Z,3.10
2023-04-02T04:21:18.002Z,3.10
2023-04-02T04:23:51.430Z,3.10
2023-04-02T04:29:05.801Z,3.00
2023-04-02T04:31:41.737Z,3.00
2023-04-02T04:36:54.204Z,2.90
2023-04-02T04:39:30.794Z,2.90
2023-04-02T04:42:03.742Z,2.90
2023-04-02T04:44:42.694Z,2.90
2023-04-02T04:49:48.909Z,2.80
2023-04-02T04:52:22.785Z,2.80
2023-04-02T04:54:52.420Z,2.80
2023-04-02T04:57:32.390Z,2.80
2023-04-02T05:02:43.782Z,2.80
2023-04-02T05:07:59.958Z,2.70
2023-04-02T05:10:35.528Z,4.60
2023-04-02T05:13:08.519Z,2.70
2023-04-02T05:23:27.097Z,2.80
2023-04-02T05:26:04.437Z,2.80
2023-04-02T05:28:40.628Z,2.80
2023-04-02T05:31:14.633Z,2.80
2023-04-02T05:33:46.880Z,2.80
2023-04-02T05:38:56.399Z,2.80
2023-04-02T05:41:39.217Z,2.60
2023-04-02T05:44:12.618Z,2.70
2023-04-02T05:51:57.100Z,2.80
2023-04-02T05:57:05.236Z,2.90
2023-04-02T05:59:38.332Z,2.80
2023-04-02T06:02:09.502Z,3.00
2023-04-02T06:04:47.297Z,3.00
2023-04-02T06:09:57.242Z,3.10
2023-04-02T06:20:07.099Z,3.40
2023-04-02T06:22:38.959Z,3.40
2023-04-02T06:25:14.703Z,3.40
2023-04-02T06:27:45.145Z,3.40
2023-04-02T06:30:22.418Z,3.40
2023-04-02T06:32:54.372Z,3.50
2023-04-02T06:38:05.510Z,3.40
2023-04-02T06:40:42.960Z,3.50
2023-04-02T06:46:09.177Z,3.50
2023-04-02T06:48:52.603Z,3.60
2023-04-02T06:51:24.981Z,3.60
2023-04-02T07:01:36.797Z,4.00
2023-04-02T07:04:05.451Z,3.80
2023-04-02T07:06:41.393Z,3.80
2023-04-02T07:11:45.519Z,3.90
2023-04-02T07:14:14.264Z,3.80
2023-04-02T07:16:44.553Z,3.80
2023-04-02T07:19:19.121Z,3.70
2023-04-02T07:21:47.986Z,3.70
2023-04-02T07:24:17.793Z,3.80
2023-04-02T07:26:48.842Z,3.80
2023-04-02T07:29:17.820Z,3.90
2023-04-02T07:31:47.381Z,4.00
2023-04-02T07:34:15.484Z,4.10
2023-04-02T07:36:46.007Z,4.30
2023-04-02T07:39:14.202Z,4.40
2023-04-02T07:41:55.463Z,4.40
2023-04-02T07:44:24.774Z,4.40
2023-04-02T07:46:54.261Z,4.20
2023-04-02T07:49:23.626Z,4.30
2023-04-02T07:54:21.926Z,4.50
2023-04-02T07:56:51.262Z,4.70
2023-04-02T07:59:21.376Z,4.70
2023-04-02T08:06:50.498Z,4.90
2023-04-02T08:11:48.627Z,5.00
2023-04-02T08:14:17.898Z,5.10
2023-04-02T08:16:48.998Z,5.10
2023-04-02T08:19:18.831Z,5.10
2023-04-02T08:24:19.092Z,5.20
2023-04-02T08:26:47.535Z,5.40
2023-04-02T08:29:15.763Z,6.00
2023-04-02T08:34:15.871Z,7.40
2023-04-02T08:41:48.373Z,7.10
2023-04-02T08:44:26.062Z,6.60
2023-04-02T08:46:56.461Z,6.40
2023-04-02T08:54:29.103Z,6.10
2023-04-02T08:57:04.056Z,6.00
2023-04-02T09:02:14.481Z,6.50
2023-04-02T09:07:17.254Z,6.80
2023-04-02T09:09:49.964Z,6.90
2023-04-02T09:12:22.746Z,7.00
2023-04-02T09:15:01.328Z,6.80
2023-04-02T09:22:46.680Z,6.60
2023-04-02T09:25:22.412Z,6.70
2023-04-02T09:35:33.404Z,6.50
2023-04-02T09:40:49.429Z,6.40
2023-04-02T09:43:20.401Z,6.50
2023-04-02T09:46:01.826Z,6.40
2023-04-02T09:51:23.837Z,6.40
2023-04-02T09:53:54.145Z,6.30
2023-04-02T09:56:26.457Z,6.20
2023-04-02T10:01:36.146Z,6.40
2023-04-02T10:06:37.953Z,6.60
2023-04-02T10:11:52.763Z,6.60
2023-04-02T10:14:27.047Z,6.60
2023-04-02T10:16:58.635Z,6.50
2023-04-02T10:22:04.334Z,6.60
2023-04-02T10:24:32.503Z,6.70
2023-04-02T10:34:53.639Z,6.90
2023-04-02T10:38:08.481Z,6.90
2023-04-02T10:40:41.809Z,7.00
2023-04-02T10:43:33.234Z,6.90
2023-04-02T10:46:09.069Z,7.00
2023-04-02T10:48:44.679Z,7.30
2023-04-02T10:56:17.922Z,7.70
2023-04-02T10:58:57.518Z,7.60
2023-04-02T11:04:01.700Z,8.00
2023-04-02T11:06:32.662Z,7.90
2023-04-02T11:09:04.948Z,7.90
2023-04-02T11:11:39.753Z,7.70
2023-04-02T11:14:15.702Z,7.80
2023-04-02T11:16:44.997Z,7.90
2023-04-02T11:19:25.581Z,8.10
2023-04-02T11:21:59.904Z,8.20
2023-04-02T11:27:18.259Z,8.00
2023-04-02T11:32:40.566Z,8.40
2023-04-02T11:43:50.360Z,8.20
2023-04-02T11:49:38.221Z,8.20
2023-04-02T11:52:23.202Z,9.50
2023-04-02T11:54:59.439Z,8.50
2023-04-02T12:00:23.380Z,8.50
2023-04-02T12:05:36.708Z,9.20
2023-04-02T12:08:29.680Z,10.10
2023-04-02T12:13:48.831Z,12.70
2023-04-02T12:16:19.547Z,12.60
2023-04-02T12:18:54.942Z,12.80
2023-04-02T12:26:37.035Z,11.20
2023-04-02T12:31:49.317Z,11.30
2023-04-02T12:34:20.384Z,11.60
2023-04-02T12:37:02.529Z,11.50
2023-04-02T12:39:32.839Z,11.00
2023-04-02T12:44:31.830Z,10.50
2023-04-02T12:49:37.074Z,10.50
2023-04-02T12:54:44.638Z,10.20
2023-04-02T13:08:05.792Z,12.90
2023-04-02T13:10:35.808Z,13.40
2023-04-02T13:18:19.848Z,14.30
2023-04-02T13:20:59.238Z,14.30
2023-04-02T13:23:38.253Z,14.20
2023-04-02T13:28:42.421Z,14.30
2023-04-02T13:33:46.656Z,14.10
2023-04-02T13:36:16.156Z,13.70
2023-04-02T13:38:45.414Z,12.80
2023-04-02T13:41:22.508Z,12.10
2023-04-02T13:46:24.654Z,11.00
2023-04-02T13:48:56.545Z,10.50
2023-04-02T13:51:33.031Z,10.00
2023-04-02T13:56:33.340Z,9.50
2023-04-02T13:59:01.434Z,10.30
2023-04-02T14:01:32.367Z,11.20
2023-04-02T14:04:03.483Z,12.10
2023-04-02T14:06:52.588Z,12.60
2023-04-02T14:09:27.294Z,12.80
2023-04-02T14:12:01.966Z,12.10
2023-04-02T14:14:47.162Z,11.50
2023-04-02T14:17:23.671Z,11.50
2023-04-02T14:20:19.151Z,11.60
2023-04-02T14:23:02.089Z,12.10
2023-04-02T14:25:38.344Z,12.20
2023-04-02T14:28:10.659Z,11.90
2023-04-02T14:33:22.774Z,12.90
2023-04-02T14:35:57.495Z,13.30
2023-04-02T14:38:31.324Z,13.60
2023-04-02T14:41:06.836Z,13.40
2023-04-02T14:43:43.202Z,13.20
2023-04-02T14:48:51.309Z,13.60
2023-04-02T14:51:26.252Z,13.10
2023-04-02T14:54:04.690Z,12.80
2023-04-02T14:56:39.466Z,12.90
2023-04-02T14:59:21.896Z,13.20
2023-04-02T15:04:30.042Z,13.80
2023-04-02T15:07:03.892Z,13.80
2023-04-02T15:09:38.100Z,13.00
2023-04-02T15:12:12.239Z,12.50
2023-04-02T15:17:16.047Z,12.50
2023-04-02T15:22:28.578Z,12.00
2023-04-02T15:25:07.092Z,11.60
2023-04-02T15:30:17.130Z,10.90
2023-04-02T15:32:47.462Z,11.40
2023-04-02T15:35:25.344Z,11.90
2023-04-02T15:40:53.466Z,12.20
2023-04-02T15:43:27.038Z,11.60
2023-04-02T15:46:09.408Z,11.00
2023-04-02T15:49:05.298Z,10.50
2023-04-02T15:54:18.862Z,9.70
2023-04-02T15:56:53.648Z,9.50
2023-04-02T15:59:40.467Z,9.30
2023-04-02T16:02:29.524Z,9.10
2023-04-02T16:08:02.240Z,8.80
2023-04-02T16:10:42.109Z,8.90
2023-04-02T16:13:18.924Z,9.00
2023-04-02T16:18:31.572Z,10.40
2023-04-02T16:23:35.431Z,10.60
2023-04-02T16:26:20.377Z,10.20
2023-04-02T16:28:59.670Z,9.80
2023-04-02T16:31:34.062Z,9.50
2023-04-02T16:34:07.629Z,9.40
2023-04-02T16:36:47.666Z,9.30
2023-04-02T16:39:26.823Z,9.10
2023-04-02T16:42:05.413Z,9.30
2023-04-02T16:44:46.038Z,9.40
2023-04-02T16:47:35.060Z,9.20
2023-04-02T16:50:13.115Z,9.10
2023-04-02T16:55:32.409Z,8.80
2023-04-02T17:06:18.768Z,8.40
2023-04-02T17:08:52.873Z,8.30
2023-04-02T17:11:24.708Z,8.20
2023-04-02T17:14:05.757Z,8.10
2023-04-02T17:16:38.214Z,8.00
2023-04-02T17:19:09.073Z,8.10
2023-04-02T17:21:38.113Z,7.90
2023-04-02T17:26:47.359Z,7.80
2023-04-02T17:29:21.391Z,7.80
2023-04-02T17:31:51.333Z,7.70
2023-04-02T17:37:00.883Z,7.60
2023-04-02T17:39:35.814Z,7.60
2023-04-02T17:44:58.744Z,7.30
2023-04-02T17:47:31.974Z,7.20
2023-04-02T17:50:25.721Z,7.00
2023-04-02T17:55:41.699Z,6.60
2023-04-02T17:58:22.483Z,6.40
2023-04-02T18:03:47.776Z,6.00
2023-04-02T18:06:20.302Z,5.80
2023-04-02T18:08:58.971Z,5.70
2023-04-02T18:11:36.625Z,5.50
2023-04-02T18:19:23.756Z,5.30
2023-04-02T18:24:38.120Z,5.40
2023-04-02T18:27:32.169Z,5.50
2023-04-02T18:30:10.495Z,5.60
2023-04-02T18:33:05.604Z,5.60
2023-04-02T18:35:34.780Z,5.70
2023-04-02T18:38:16.724Z,5.70
2023-04-02T18:40:59.967Z,5.70
2023-04-02T18:43:35.345Z,5.80
2023-04-02T18:48:43.565Z,5.90
2023-04-02T18:51:18.338Z,5.90
2023-04-02T18:53:48.278Z,5.90
2023-04-02T18:56:19.814Z,5.90
2023-04-02T18:58:53.685Z,5.80
2023-04-02T19:04:05.096Z,5.70
2023-04-02T19:06:39.003Z,5.60
2023-04-02T19:09:14.063Z,5.60
2023-04-02T19:11:42.304Z,5.60
2023-04-02T19:17:03.751Z,5.30
2023-04-02T19:19:38.211Z,5.30
2023-04-02T19:22:17.964Z,5.20
2023-04-02T19:25:02.717Z,5.10
2023-04-02T19:27:38.177Z,5.00
2023-04-02T19:30:27.091Z,5.10
2023-04-02T19:33:03.549Z,5.20
2023-04-02T19:35:38.386Z,5.30
2023-04-02T19:38:20.378Z,5.30
2023-04-02T19:40:54.967Z,5.30
2023-04-02T19:43:24.346Z,5.40
2023-04-02T19:45:55.844Z,5.60
2023-04-02T19:48:27.128Z,5.40
2023-04-02T19:50:57.683Z,5.50
2023-04-02T19:55:56.600Z,5.60
2023-04-02T19:58:28.373Z,5.50
2023-04-02T20:00:56.834Z,5.60
2023-04-02T20:03:25.218Z,5.50
2023-04-02T20:05:58.095Z,5.50
2023-04-02T20:08:27.400Z,5.40
2023-04-02T20:10:59.795Z,5.30
2023-04-02T20:18:28.032Z,5.10
2023-04-02T20:20:58.725Z,5.10
2023-04-02T20:25:58.935Z,4.80
2023-04-02T20:28:28.691Z,4.60
2023-04-02T20:31:08.394Z,4.50
2023-04-02T20:33:38.015Z,4.40
2023-04-02T20:36:11.053Z,4.30
2023-04-02T20:38:40.330Z,4.30
2023-04-02T20:41:08.664Z,4.10
2023-04-02T20:43:40.669Z,4.00
2023-04-02T20:46:10.864Z,4.00
2023-04-02T20:48:40.694Z,3.80
2023-04-02T20:51:15.564Z,3.70
2023-04-02T20:56:14.520Z,3.50
2023-04-02T20:58:44.698Z,3.40
2023-04-02T21:01:19.222Z,3.30
2023-04-02T21:03:47.521Z,3.20
2023-04-02T21:06:19.189Z,3.20
2023-04-02T21:11:18.359Z,3.10
2023-04-02T21:13:46.595Z,3.00
2023-04-02T21:16:17.452Z,3.00
2023-04-02T21:18:47.745Z,2.90
2023-04-02T21:21:19.120Z,2.90
2023-04-02T21:23:48.839Z,2.90
2023-04-02T21:26:18.310Z,2.90
2023-04-02T21:28:47.482Z,2.90
2023-04-02T21:31:19.480Z,2.90
2023-04-02T21:33:50.469Z,3.00
2023-04-02T21:36:23.698Z,3.00
2023-04-02T21:41:24.378Z,3.10
2023-04-02T21:43:52.596Z,3.00
2023-04-02T21:46:23.386Z,2.90
2023-04-02T21:48:53.800Z,2.90
2023-04-02T21:53:56.471Z,2.80
2023-04-02T21:56:27.452Z,2.90
2023-04-02T21:58:58.185Z,3.00
2023-04-02T22:01:30.276Z,2.90
2023-04-02T22:04:01.061Z,2.90
2023-04-02T22:09:04.807Z,2.90
2023-04-02T22:11:34.545Z,2.80
2023-04-02T22:14:04.392Z,2.80
2023-04-02T22:16:37.288Z,2.70
2023-04-02T22:21:38.046Z,2.60
2023-04-02T22:24:10.052Z,2.60
2023-04-02T22:26:39.797Z,2.50
2023-04-02T22:29:09.232Z,2.40
2023-04-02T22:31:39.848Z,2.40
2023-04-02T22:34:08.324Z,2.50
2023-04-02T22:36:38.997Z,2.50
2023-04-02T22:39:10.478Z,2.40
2023-04-02T22:41:39.827Z,2.40
2023-04-02T22:44:10.403Z,2.40
2023-04-02T22:49:06.869Z,2.40
2023-04-02T22:51:36.092Z,2.40
2023-04-02T22:54:05.714Z,2.30
2023-04-02T22:56:37.332Z,2.30
2023-04-02T22:59:05.722Z,2.40
2023-04-02T23:04:05.998Z,2.40
2023-04-02T23:06:35.294Z,2.40
2023-04-02T23:09:04.105Z,2.30
2023-04-02T23:11:36.000Z,2.40
2023-04-02T23:14:04.039Z,2.30
2023-04-02T23:16:33.347Z,2.30
2023-04-02T23:19:01.852Z,2.20
2023-04-02T23:23:59.561Z,2.00
2023-04-02T23:26:31.307Z,1.90
2023-04-02T23:29:02.386Z,1.90
2023-04-02T23:31:31.847Z,1.80
2023-04-02T23:34:01.046Z,1.80
2023-04-02T23:36:31.345Z,1.80
2023-04-02T23:39:04.042Z,1.80
2023-04-02T23:41:32.280Z,1.80
2023-04-02T23:44:01.875Z,1.80
2023-04-02T23:46:31.815Z,1.80
2023-04-02T23:51:32.674Z,1.70
2023-04-02T23:54:03.504Z,1.70
2023-04-02T23:56:31.685Z,1.60
2023-04-02T23:59:02.494Z,1.50
